sensor_id;sensor_type;location;lat;lon;timestamp;temperature;humidity
28552;DHT22;15752;49.560;8.708;2023-04-24T00:00:08;15.90;97.40
28552;DHT22;15752;49.560;8.708;2023-04-24T00:02:38;16.00;97.60
28552;DHT22;15752;49.560;8.708;2023-04-24T00:05:08;16.00;97.60
28552;DHT22;15752;49.560;8.708;2023-04-24T00:07:36;15.90;97.50
28552;DHT22;15752;49.560;8.708;2023-04-24T00:10:07;15.90;97.40
28552;DHT22;15752;49.560;8.708;2023-04-24T00:12:36;15.90;97.50
28552;DHT22;15752;49.560;8.708;2023-04-24T00:15:06;15.90;97.50
28552;DHT22;15752;49.560;8.708;2023-04-24T00:17:35;15.90;97.60
28552;DHT22;15752;49.560;8.708;2023-04-24T00:20:05;15.90;97.40
28552;DHT22;15752;49.560;8.708;2023-04-24T00:22:34;15.90;97.60
28552;DHT22;15752;49.560;8.708;2023-04-24T00:25:02;15.90;97.00
28552;DHT22;15752;49.560;8.708;2023-04-24T00:27:33;15.90;97.40
28552;DHT22;15752;49.560;8.708;2023-04-24T00:30:04;15.90;97.40
28552;DHT22;15752;49.560;8.708;2023-04-24T00:32:34;15.90;97.60
28552;DHT22;15752;49.560;8.708;2023-04-24T00:35:02;15.90;97.40
28552;DHT22;15752;49.560;8.708;2023-04-24T00:37:33;15.90;97.60
28552;DHT22;15752;49.560;8.708;2023-04-24T00:40:01;15.90;97.50
28552;DHT22;15752;49.560;8.708;2023-04-24T00:42:30;15.90;97.60
28552;DHT22;15752;49.560;8.708;2023-04-24T00:45:01;15.80;97.40
28552;DHT22;15752;49.560;8.708;2023-04-24T00:47:30;15.90;97.50
28552;DHT22;15752;49.560;8.708;2023-04-24T00:50:01;15.80;97.60
28552;DHT22;15752;49.560;8.708;2023-04-24T00:52:32;15.90;97.70
28552;DHT22;15752;49.560;8.708;2023-04-24T00:55:00;15.80;97.50
28552;DHT22;15752;49.560;8.708;2023-04-24T00:57:29;15.90;97.50
28552;DHT22;15752;49.560;8.708;2023-04-24T00:59:59;15.80;97.70
28552;DHT22;15752;49.560;8.708;2023-04-24T01:02:28;15.90;97.50
28552;DHT22;15752;49.560;8.708;2023-04-24T01:04:57;15.80;97.50
28552;DHT22;15752;49.560;8.708;2023-04-24T01:07:25;15.80;97.60
28552;DHT22;15752;49.560;8.708;2023-04-24T01:09:54;15.80;97.40
28552;DHT22;15752;49.560;8.708;2023-04-24T01:12:24;15.80;97.50
28552;DHT22;15752;49.560;8.708;2023-04-24T01:14:52;15.80;97.40
28552;DHT22;15752;49.560;8.708;2023-04-24T01:17:22;15.80;97.40
28552;DHT22;15752;49.560;8.708;2023-04-24T01:19:51;15.80;97.50
28552;DHT22;15752;49.560;8.708;2023-04-24T01:22:22;15.80;97.80
28552;DHT22;15752;49.560;8.708;2023-04-24T01:24:51;15.80;97.50
28552;DHT22;15752;49.560;8.708;2023-04-24T01:27:20;15.80;97.70
28552;DHT22;15752;49.560;8.708;2023-04-24T01:29:48;15.80;97.60
28552;DHT22;15752;49.560;8.708;2023-04-24T01:32:19;15.80;97.70
28552;DHT22;15752;49.560;8.708;2023-04-24T01:34:48;15.70;97.70
28552;DHT22;15752;49.560;8.708;2023-04-24T01:37:17;15.70;97.70
28552;DHT22;15752;49.560;8.708;2023-04-24T01:39:47;15.70;97.80
28552;DHT22;15752;49.560;8.708;2023-04-24T01:42:16;15.70;97.20
28552;DHT22;15752;49.560;8.708;2023-04-24T01:44:47;15.70;97.20
28552;DHT22;15752;49.560;8.708;2023-04-24T01:47:15;15.70;97.60
28552;DHT22;15752;49.560;8.708;2023-04-24T01:49:45;15.70;97.60
28552;DHT22;15752;49.560;8.708;2023-04-24T01:52:13;15.70;97.50
28552;DHT22;15752;49.560;8.708;2023-04-24T01:54:43;15.70;97.50
28552;DHT22;15752;49.560;8.708;2023-04-24T01:57:13;15.70;97.60
28552;DHT22;15752;49.560;8.708;2023-04-24T01:59:42;15.70;97.50
28552;DHT22;15752;49.560;8.708;2023-04-24T02:02:11;15.70;97.30
28552;DHT22;15752;49.560;8.708;2023-04-24T02:04:39;15.70;97.30
28552;DHT22;15752;49.560;8.708;2023-04-24T02:07:07;15.70;97.30
28552;DHT22;15752;49.560;8.708;2023-04-24T02:09:36;15.70;97.50
28552;DHT22;15752;49.560;8.708;2023-04-24T02:12:05;15.60;97.40
28552;DHT22;15752;49.560;8.708;2023-04-24T02:14:35;15.70;97.60
28552;DHT22;15752;49.560;8.708;2023-04-24T02:17:03;15.60;97.50
28552;DHT22;15752;49.560;8.708;2023-04-24T02:19:36;15.70;97.70
28552;DHT22;15752;49.560;8.708;2023-04-24T02:22:04;15.60;97.60
28552;DHT22;15752;49.560;8.708;2023-04-24T02:24:35;15.60;97.60
28552;DHT22;15752;49.560;8.708;2023-04-24T02:27:03;15.60;97.50
28552;DHT22;15752;49.560;8.708;2023-04-24T02:29:32;15.60;97.70
28552;DHT22;15752;49.560;8.708;2023-04-24T02:32:02;15.60;97.80
28552;DHT22;15752;49.560;8.708;2023-04-24T02:34:30;15.60;97.80
28552;DHT22;15752;49.560;8.708;2023-04-24T02:36:59;15.60;97.50
28552;DHT22;15752;49.560;8.708;2023-04-24T02:39:27;15.60;97.60
28552;DHT22;15752;49.560;8.708;2023-04-24T02:41:55;15.60;97.50
28552;DHT22;15752;49.560;8.708;2023-04-24T02:44:24;15.60;97.30
28552;DHT22;15752;49.560;8.708;2023-04-24T02:46:53;15.60;97.60
28552;DHT22;15752;49.560;8.708;2023-04-24T02:49:23;15.50;97.60
28552;DHT22;15752;49.560;8.708;2023-04-24T02:51:53;15.60;97.70
28552;DHT22;15752;49.560;8.708;2023-04-24T02:54:21;15.50;97.70
28552;DHT22;15752;49.560;8.708;2023-04-24T02:56:50;15.50;97.70
28552;DHT22;15752;49.560;8.708;2023-04-24T02:59:18;15.50;97.80
28552;DHT22;15752;49.560;8.708;2023-04-24T03:01:47;15.60;97.70
28552;DHT22;15752;49.560;8.708;2023-04-24T03:04:15;15.50;97.30
28552;DHT22;15752;49.560;8.708;2023-04-24T03:06:51;15.50;97.90
28552;DHT22;15752;49.560;8.708;2023-04-24T03:09:21;15.50;98.30
28552;DHT22;15752;49.560;8.708;2023-04-24T03:11:50;15.50;98.10
28552;DHT22;15752;49.560;8.708;2023-04-24T03:14:18;15.50;97.80
28552;DHT22;15752;49.560;8.708;2023-04-24T03:16:47;15.50;97.90
28552;DHT22;15752;49.560;8.708;2023-04-24T03:19:15;15.50;98.00
28552;DHT22;15752;49.560;8.708;2023-04-24T03:21:56;15.50;97.90
28552;DHT22;15752;49.560;8.708;2023-04-24T03:24:25;15.40;98.10
28552;DHT22;15752;49.560;8.708;2023-04-24T03:26:55;15.40;97.90
28552;DHT22;15752;49.560;8.708;2023-04-24T03:29:49;15.40;98.00
28552;DHT22;15752;49.560;8.708;2023-04-24T03:32:26;15.30;98.20
28552;DHT22;15752;49.560;8.708;2023-04-24T03:34:54;15.30;98.40
28552;DHT22;15752;49.560;8.708;2023-04-24T03:37:24;15.30;98.30
28552;DHT22;15752;49.560;8.708;2023-04-24T03:40:06;15.30;98.30
28552;DHT22;15752;49.560;8.708;2023-04-24T03:42:37;15.30;98.50
28552;DHT22;15752;49.560;8.708;2023-04-24T03:45:06;15.30;98.10
28552;DHT22;15752;49.560;8.708;2023-04-24T03:47:42;15.30;98.40
28552;DHT22;15752;49.560;8.708;2023-04-24T03:50:10;15.20;98.20
28552;DHT22;15752;49.560;8.708;2023-04-24T03:52:42;15.20;98.20
28552;DHT22;15752;49.560;8.708;2023-04-24T03:55:19;15.20;98.50
28552;DHT22;15752;49.560;8.708;2023-04-24T03:57:48;15.20;98.50
28552;DHT22;15752;49.560;8.708;2023-04-24T04:00:21;15.20;98.30
28552;DHT22;15752;49.560;8.708;2023-04-24T04:03:02;15.20;98.20
28552;DHT22;15752;49.560;8.708;2023-04-24T04:05:31;15.20;98.60
28552;DHT22;15752;49.560;8.708;2023-04-24T04:08:01;15.10;98.40
28552;DHT22;15752;49.560;8.708;2023-04-24T04:10:29;15.20;98.30
28552;DHT22;15752;49.560;8.708;2023-04-24T04:12:57;15.10;98.30
28552;DHT22;15752;49.560;8.708;2023-04-24T04:15:27;15.10;98.30
28552;DHT22;15752;49.560;8.708;2023-04-24T04:17:55;15.10;98.30
28552;DHT22;15752;49.560;8.708;2023-04-24T04:20:24;15.10;98.50
28552;DHT22;15752;49.560;8.708;2023-04-24T04:22:52;15.10;98.50
28552;DHT22;15752;49.560;8.708;2023-04-24T04:25:32;15.10;98.40
28552;DHT22;15752;49.560;8.708;2023-04-24T04:28:01;15.00;98.40
28552;DHT22;15752;49.560;8.708;2023-04-24T04:30:29;15.00;98.30
28552;DHT22;15752;49.560;8.708;2023-04-24T04:33:02;15.00;98.30
28552;DHT22;15752;49.560;8.708;2023-04-24T04:35:32;15.00;98.40
28552;DHT22;15752;49.560;8.708;2023-04-24T04:38:00;15.00;98.30
28552;DHT22;15752;49.560;8.708;2023-04-24T04:40:44;15.00;98.30
28552;DHT22;15752;49.560;8.708;2023-04-24T04:43:15;15.00;98.80
28552;DHT22;15752;49.560;8.708;2023-04-24T04:45:49;14.90;97.50
28552;DHT22;15752;49.560;8.708;2023-04-24T04:48:36;14.90;98.30
28552;DHT22;15752;49.560;8.708;2023-04-24T04:51:06;14.90;98.30
28552;DHT22;15752;49.560;8.708;2023-04-24T04:53:35;14.90;98.00
28552;DHT22;15752;49.560;8.708;2023-04-24T04:56:05;14.80;98.20
28552;DHT22;15752;49.560;8.708;2023-04-24T04:58:39;14.80;98.00
28552;DHT22;15752;49.560;8.708;2023-04-24T05:01:11;14.80;97.90
28552;DHT22;15752;49.560;8.708;2023-04-24T05:03:43;14.70;98.00
28552;DHT22;15752;49.560;8.708;2023-04-24T05:06:15;14.70;98.20
28552;DHT22;15752;49.560;8.708;2023-04-24T05:08:44;14.70;98.20
28552;DHT22;15752;49.560;8.708;2023-04-24T05:11:27;14.70;98.30
28552;DHT22;15752;49.560;8.708;2023-04-24T05:13:57;14.70;98.30
28552;DHT22;15752;49.560;8.708;2023-04-24T05:16:34;14.70;98.20
28552;DHT22;15752;49.560;8.708;2023-04-24T05:19:05;14.60;98.30
28552;DHT22;15752;49.560;8.708;2023-04-24T05:21:37;14.70;98.10
28552;DHT22;15752;49.560;8.708;2023-04-24T05:24:08;14.60;98.40
28552;DHT22;15752;49.560;8.708;2023-04-24T05:26:50;14.60;98.40
28552;DHT22;15752;49.560;8.708;2023-04-24T05:29:24;14.60;98.40
28552;DHT22;15752;49.560;8.708;2023-04-24T05:31:53;14.60;98.40
28552;DHT22;15752;49.560;8.708;2023-04-24T05:34:22;14.60;98.40
28552;DHT22;15752;49.560;8.708;2023-04-24T05:36:54;14.60;98.50
28552;DHT22;15752;49.560;8.708;2023-04-24T05:39:23;14.60;98.40
28552;DHT22;15752;49.560;8.708;2023-04-24T05:41:54;14.60;98.40
28552;DHT22;15752;49.560;8.708;2023-04-24T05:44:24;14.60;98.40
28552;DHT22;15752;49.560;8.708;2023-04-24T05:46:53;14.60;98.40
28552;DHT22;15752;49.560;8.708;2023-04-24T05:49:23;14.60;98.40
28552;DHT22;15752;49.560;8.708;2023-04-24T05:51:52;14.60;98.50
28552;DHT22;15752;49.560;8.708;2023-04-24T05:54:21;14.60;98.30
28552;DHT22;15752;49.560;8.708;2023-04-24T05:56:51;14.60;98.40
28552;DHT22;15752;49.560;8.708;2023-04-24T05:59:37;14.60;98.30
28552;DHT22;15752;49.560;8.708;2023-04-24T06:02:07;14.60;98.40
28552;DHT22;15752;49.560;8.708;2023-04-24T06:04:36;14.60;98.50
28552;DHT22;15752;49.560;8.708;2023-04-24T06:07:04;14.60;98.30
28552;DHT22;15752;49.560;8.708;2023-04-24T06:09:33;14.60;98.30
28552;DHT22;15752;49.560;8.708;2023-04-24T06:12:02;14.60;98.40
28552;DHT22;15752;49.560;8.708;2023-04-24T06:14:46;14.60;98.40
28552;DHT22;15752;49.560;8.708;2023-04-24T06:17:22;14.60;98.00
28552;DHT22;15752;49.560;8.708;2023-04-24T06:19:51;14.60;98.20
28552;DHT22;15752;49.560;8.708;2023-04-24T06:22:21;14.60;98.20
28552;DHT22;15752;49.560;8.708;2023-04-24T06:24:50;14.60;98.30
28552;DHT22;15752;49.560;8.708;2023-04-24T06:27:18;14.60;98.20
28552;DHT22;15752;49.560;8.708;2023-04-24T06:29:48;14.60;98.20
28552;DHT22;15752;49.560;8.708;2023-04-24T06:32:22;14.60;98.10
28552;DHT22;15752;49.560;8.708;2023-04-24T06:34:51;14.60;98.30
28552;DHT22;15752;49.560;8.708;2023-04-24T06:37:20;14.60;98.30
28552;DHT22;15752;49.560;8.708;2023-04-24T06:39:48;14.60;97.90
28552;DHT22;15752;49.560;8.708;2023-04-24T06:42:17;14.60;97.60
28552;DHT22;15752;49.560;8.708;2023-04-24T06:44:50;14.60;98.10
28552;DHT22;15752;49.560;8.708;2023-04-24T06:47:19;14.60;97.60
28552;DHT22;15752;49.560;8.708;2023-04-24T06:49:47;14.60;98.10
28552;DHT22;15752;49.560;8.708;2023-04-24T06:52:17;14.60;97.70
28552;DHT22;15752;49.560;8.708;2023-04-24T06:54:46;14.60;97.70
28552;DHT22;15752;49.560;8.708;2023-04-24T06:57:15;14.60;98.10
28552;DHT22;15752;49.560;8.708;2023-04-24T06:59:43;14.60;98.30
28552;DHT22;15752;49.560;8.708;2023-04-24T07:02:13;14.60;98.20
28552;DHT22;15752;49.560;8.708;2023-04-24T07:04:42;14.50;97.80
28552;DHT22;15752;49.560;8.708;2023-04-24T07:07:12;14.50;98.00
28552;DHT22;15752;49.560;8.708;2023-04-24T07:09:41;14.50;97.70
28552;DHT22;15752;49.560;8.708;2023-04-24T07:12:11;14.50;97.60
28552;DHT22;15752;49.560;8.708;2023-04-24T07:14:40;14.50;97.90
28552;DHT22;15752;49.560;8.708;2023-04-24T07:17:08;14.40;97.80
28552;DHT22;15752;49.560;8.708;2023-04-24T07:19:38;14.40;97.80
28552;DHT22;15752;49.560;8.708;2023-04-24T07:22:07;14.40;98.30
28552;DHT22;15752;49.560;8.708;2023-04-24T07:24:35;14.40;98.30
28552;DHT22;15752;49.560;8.708;2023-04-24T07:27:04;14.40;98.20
28552;DHT22;15752;49.560;8.708;2023-04-24T07:29:32;14.40;98.20
28552;DHT22;15752;49.560;8.708;2023-04-24T07:32:02;14.40;97.50
28552;DHT22;15752;49.560;8.708;2023-04-24T07:34:31;14.40;98.20
28552;DHT22;15752;49.560;8.708;2023-04-24T07:37:01;14.40;98.10
28552;DHT22;15752;49.560;8.708;2023-04-24T07:39:30;14.40;97.90
28552;DHT22;15752;49.560;8.708;2023-04-24T07:41:58;14.40;97.80
28552;DHT22;15752;49.560;8.708;2023-04-24T07:44:28;14.40;97.90
28552;DHT22;15752;49.560;8.708;2023-04-24T07:46:56;14.40;98.30
28552;DHT22;15752;49.560;8.708;2023-04-24T07:49:25;14.40;97.90
28552;DHT22;15752;49.560;8.708;2023-04-24T07:51:54;14.40;97.60
28552;DHT22;15752;49.560;8.708;2023-04-24T07:54:24;14.40;97.70
28552;DHT22;15752;49.560;8.708;2023-04-24T07:56:52;14.50;97.70
28552;DHT22;15752;49.560;8.708;2023-04-24T07:59:21;14.50;97.90
28552;DHT22;15752;49.560;8.708;2023-04-24T08:01:49;14.50;97.30
28552;DHT22;15752;49.560;8.708;2023-04-24T08:04:18;14.50;97.80
28552;DHT22;15752;49.560;8.708;2023-04-24T08:06:47;14.50;98.00
28552;DHT22;15752;49.560;8.708;2023-04-24T08:09:16;14.50;98.00
28552;DHT22;15752;49.560;8.708;2023-04-24T08:11:45;14.50;97.90
28552;DHT22;15752;49.560;8.708;2023-04-24T08:14:14;14.50;98.00
28552;DHT22;15752;49.560;8.708;2023-04-24T08:16:42;14.50;97.00
28552;DHT22;15752;49.560;8.708;2023-04-24T08:19:11;14.50;97.70
28552;DHT22;15752;49.560;8.708;2023-04-24T08:21:39;14.60;97.70
28552;DHT22;15752;49.560;8.708;2023-04-24T08:24:07;14.60;97.60
28552;DHT22;15752;49.560;8.708;2023-04-24T08:26:36;14.60;97.80
28552;DHT22;15752;49.560;8.708;2023-04-24T08:29:06;14.60;97.90
28552;DHT22;15752;49.560;8.708;2023-04-24T08:31:34;14.60;98.00
28552;DHT22;15752;49.560;8.708;2023-04-24T08:34:03;14.60;97.80
28552;DHT22;15752;49.560;8.708;2023-04-24T08:36:32;14.70;97.50
28552;DHT22;15752;49.560;8.708;2023-04-24T08:39:12;14.60;97.60
28552;DHT22;15752;49.560;8.708;2023-04-24T08:41:42;14.70;97.70
28552;DHT22;15752;49.560;8.708;2023-04-24T08:44:13;14.70;97.70
28552;DHT22;15752;49.560;8.708;2023-04-24T08:46:43;14.70;97.40
28552;DHT22;15752;49.560;8.708;2023-04-24T08:49:15;14.70;97.00
28552;DHT22;15752;49.560;8.708;2023-04-24T08:51:44;14.70;97.10
28552;DHT22;15752;49.560;8.708;2023-04-24T08:54:13;14.70;97.30
28552;DHT22;15752;49.560;8.708;2023-04-24T08:56:44;14.70;97.00
28552;DHT22;15752;49.560;8.708;2023-04-24T08:59:14;14.70;97.10
28552;DHT22;15752;49.560;8.708;2023-04-24T09:01:44;14.60;97.00
28552;DHT22;15752;49.560;8.708;2023-04-24T09:04:14;14.70;97.00
28552;DHT22;15752;49.560;8.708;2023-04-24T09:06:45;14.70;97.10
28552;DHT22;15752;49.560;8.708;2023-04-24T09:09:13;14.70;96.80
28552;DHT22;15752;49.560;8.708;2023-04-24T09:11:44;14.70;97.00
28552;DHT22;15752;49.560;8.708;2023-04-24T09:14:14;14.70;96.80
28552;DHT22;15752;49.560;8.708;2023-04-24T09:16:42;14.70;96.60
28552;DHT22;15752;49.560;8.708;2023-04-24T09:19:11;14.70;96.60
28552;DHT22;15752;49.560;8.708;2023-04-24T09:21:39;14.70;96.60
28552;DHT22;15752;49.560;8.708;2023-04-24T09:24:16;14.70;96.50
28552;DHT22;15752;49.560;8.708;2023-04-24T09:26:45;14.80;96.50
28552;DHT22;15752;49.560;8.708;2023-04-24T09:29:18;14.80;96.50
28552;DHT22;15752;49.560;8.708;2023-04-24T09:31:47;14.80;96.30
28552;DHT22;15752;49.560;8.708;2023-04-24T09:34:21;14.80;96.30
28552;DHT22;15752;49.560;8.708;2023-04-24T09:36:50;14.80;96.50
28552;DHT22;15752;49.560;8.708;2023-04-24T09:39:19;14.80;96.60
28552;DHT22;15752;49.560;8.708;2023-04-24T09:41:48;14.80;96.50
28552;DHT22;15752;49.560;8.708;2023-04-24T09:44:20;14.70;96.60
28552;DHT22;15752;49.560;8.708;2023-04-24T09:46:51;14.70;96.80
28552;DHT22;15752;49.560;8.708;2023-04-24T09:49:22;14.70;96.90
28552;DHT22;15752;49.560;8.708;2023-04-24T09:51:53;14.70;97.20
28552;DHT22;15752;49.560;8.708;2023-04-24T09:54:30;14.70;96.90
28552;DHT22;15752;49.560;8.708;2023-04-24T09:56:59;14.70;96.40
28552;DHT22;15752;49.560;8.708;2023-04-24T09:59:30;14.70;96.50
28552;DHT22;15752;49.560;8.708;2023-04-24T10:02:00;14.70;96.50
28552;DHT22;15752;49.560;8.708;2023-04-24T10:04:29;14.70;96.70
28552;DHT22;15752;49.560;8.708;2023-04-24T10:06:57;14.70;96.50
28552;DHT22;15752;49.560;8.708;2023-04-24T10:09:26;14.70;96.40
28552;DHT22;15752;49.560;8.708;2023-04-24T10:11:55;14.70;96.50
28552;DHT22;15752;49.560;8.708;2023-04-24T10:14:24;14.70;96.30
28552;DHT22;15752;49.560;8.708;2023-04-24T10:16:54;14.70;96.30
28552;DHT22;15752;49.560;8.708;2023-04-24T10:19:25;14.70;96.30
28552;DHT22;15752;49.560;8.708;2023-04-24T10:21:54;14.70;96.60
28552;DHT22;15752;49.560;8.708;2023-04-24T10:24:24;14.70;96.50
28552;DHT22;15752;49.560;8.708;2023-04-24T10:26:52;14.70;96.50
28552;DHT22;15752;49.560;8.708;2023-04-24T10:29:21;14.70;96.40
28552;DHT22;15752;49.560;8.708;2023-04-24T10:31:49;14.60;96.40
28552;DHT22;15752;49.560;8.708;2023-04-24T10:34:21;14.60;96.30
28552;DHT22;15752;49.560;8.708;2023-04-24T10:36:52;14.70;96.40
28552;DHT22;15752;49.560;8.708;2023-04-24T10:39:24;14.70;96.50
28552;DHT22;15752;49.560;8.708;2023-04-24T10:41:54;14.70;96.60
28552;DHT22;15752;49.560;8.708;2023-04-24T10:44:24;14.70;96.90
28552;DHT22;15752;49.560;8.708;2023-04-24T10:46:54;14.70;96.50
28552;DHT22;15752;49.560;8.708;2023-04-24T10:49:29;14.70;96.60
28552;DHT22;15752;49.560;8.708;2023-04-24T10:52:02;14.70;96.40
28552;DHT22;15752;49.560;8.708;2023-04-24T10:54:35;14.70;96.50
28552;DHT22;15752;49.560;8.708;2023-04-24T10:57:27;14.70;96.30
28552;DHT22;15752;49.560;8.708;2023-04-24T11:00:18;14.80;96.60
28552;DHT22;15752;49.560;8.708;2023-04-24T11:02:48;14.80;96.30
28552;DHT22;15752;49.560;8.708;2023-04-24T11:05:50;14.80;96.10
28552;DHT22;15752;49.560;8.708;2023-04-24T11:08:28;14.70;96.40
28552;DHT22;15752;49.560;8.708;2023-04-24T11:11:01;14.80;96.60
28552;DHT22;15752;49.560;8.708;2023-04-24T11:14:05;14.70;96.50
28552;DHT22;15752;49.560;8.708;2023-04-24T11:16:45;14.70;96.40
28552;DHT22;15752;49.560;8.708;2023-04-24T11:19:23;14.70;96.30
28552;DHT22;15752;49.560;8.708;2023-04-24T11:21:58;14.70;96.40
28552;DHT22;15752;49.560;8.708;2023-04-24T11:24:37;14.70;96.30
28552;DHT22;15752;49.560;8.708;2023-04-24T11:27:16;14.70;96.20
28552;DHT22;15752;49.560;8.708;2023-04-24T11:29:47;14.60;96.30
28552;DHT22;15752;49.560;8.708;2023-04-24T11:32:22;14.70;96.50
28552;DHT22;15752;49.560;8.708;2023-04-24T11:34:53;14.60;96.40
28552;DHT22;15752;49.560;8.708;2023-04-24T11:37:26;14.70;96.40
28552;DHT22;15752;49.560;8.708;2023-04-24T11:39:56;14.70;96.40
28552;DHT22;15752;49.560;8.708;2023-04-24T11:42:27;14.70;96.40
28552;DHT22;15752;49.560;8.708;2023-04-24T11:44:56;14.70;96.30
28552;DHT22;15752;49.560;8.708;2023-04-24T11:47:29;14.70;95.90
28552;DHT22;15752;49.560;8.708;2023-04-24T11:49:58;14.70;96.30
28552;DHT22;15752;49.560;8.708;2023-04-24T11:52:29;14.70;96.20
28552;DHT22;15752;49.560;8.708;2023-04-24T11:54:58;14.70;96.30
28552;DHT22;15752;49.560;8.708;2023-04-24T11:57:27;14.70;96.30
28552;DHT22;15752;49.560;8.708;2023-04-24T12:00:00;14.60;96.10
28552;DHT22;15752;49.560;8.708;2023-04-24T12:02:37;14.70;96.30
28552;DHT22;15752;49.560;8.708;2023-04-24T12:05:07;14.70;96.30
28552;DHT22;15752;49.560;8.708;2023-04-24T12:07:42;14.70;96.10
28552;DHT22;15752;49.560;8.708;2023-04-24T12:10:10;14.70;95.60
28552;DHT22;15752;49.560;8.708;2023-04-24T12:12:39;14.80;95.90
28552;DHT22;15752;49.560;8.708;2023-04-24T12:15:10;14.80;96.10
28552;DHT22;15752;49.560;8.708;2023-04-24T12:17:41;14.80;96.10
28552;DHT22;15752;49.560;8.708;2023-04-24T12:20:11;14.90;96.20
28552;DHT22;15752;49.560;8.708;2023-04-24T12:22:46;14.90;96.30
28552;DHT22;15752;49.560;8.708;2023-04-24T12:25:15;15.00;96.40
28552;DHT22;15752;49.560;8.708;2023-04-24T12:27:45;15.00;96.50
28552;DHT22;15752;49.560;8.708;2023-04-24T12:30:15;15.10;96.40
28552;DHT22;15752;49.560;8.708;2023-04-24T12:32:46;15.10;96.30
28552;DHT22;15752;49.560;8.708;2023-04-24T12:35:19;15.20;96.10
28552;DHT22;15752;49.560;8.708;2023-04-24T12:37:50;15.20;96.20
28552;DHT22;15752;49.560;8.708;2023-04-24T12:40:21;15.30;95.70
28552;DHT22;15752;49.560;8.708;2023-04-24T12:42:50;15.40;95.80
28552;DHT22;15752;49.560;8.708;2023-04-24T12:45:20;15.40;95.70
28552;DHT22;15752;49.560;8.708;2023-04-24T12:47:50;15.40;95.20
28552;DHT22;15752;49.560;8.708;2023-04-24T12:50:19;15.40;95.40
28552;DHT22;15752;49.560;8.708;2023-04-24T12:52:49;15.40;95.40
28552;DHT22;15752;49.560;8.708;2023-04-24T12:55:18;15.40;94.90
28552;DHT22;15752;49.560;8.708;2023-04-24T12:57:46;15.40;94.80
28552;DHT22;15752;49.560;8.708;2023-04-24T13:00:16;15.40;94.70
28552;DHT22;15752;49.560;8.708;2023-04-24T13:02:46;15.40;94.90
28552;DHT22;15752;49.560;8.708;2023-04-24T13:05:15;15.30;95.00
28552;DHT22;15752;49.560;8.708;2023-04-24T13:07:43;15.30;95.10
28552;DHT22;15752;49.560;8.708;2023-04-24T13:10:13;15.30;95.00
28552;DHT22;15752;49.560;8.708;2023-04-24T13:12:42;15.30;94.70
28552;DHT22;15752;49.560;8.708;2023-04-24T13:15:12;15.30;94.50
28552;DHT22;15752;49.560;8.708;2023-04-24T13:17:41;15.00;94.70
28552;DHT22;15752;49.560;8.708;2023-04-24T13:20:10;15.20;94.60
28552;DHT22;15752;49.560;8.708;2023-04-24T13:22:38;15.20;94.90
28552;DHT22;15752;49.560;8.708;2023-04-24T13:25:07;15.20;95.00
28552;DHT22;15752;49.560;8.708;2023-04-24T13:27:39;15.20;94.80
28552;DHT22;15752;49.560;8.708;2023-04-24T13:30:08;15.20;94.90
28552;DHT22;15752;49.560;8.708;2023-04-24T13:32:38;15.20;95.20
28552;DHT22;15752;49.560;8.708;2023-04-24T13:35:07;15.20;94.90
28552;DHT22;15752;49.560;8.708;2023-04-24T13:37:37;15.20;95.00
28552;DHT22;15752;49.560;8.708;2023-04-24T13:40:06;15.20;94.80
28552;DHT22;15752;49.560;8.708;2023-04-24T13:42:35;15.20;95.20
28552;DHT22;15752;49.560;8.708;2023-04-24T13:45:06;15.20;95.00
28552;DHT22;15752;49.560;8.708;2023-04-24T13:47:51;15.30;95.30
28552;DHT22;15752;49.560;8.708;2023-04-24T13:50:21;15.30;95.20
28552;DHT22;15752;49.560;8.708;2023-04-24T13:52:49;15.40;95.10
28552;DHT22;15752;49.560;8.708;2023-04-24T13:55:18;15.40;94.90
28552;DHT22;15752;49.560;8.708;2023-04-24T13:58:04;15.40;94.50
28552;DHT22;15752;49.560;8.708;2023-04-24T14:00:34;15.50;95.00
28552;DHT22;15752;49.560;8.708;2023-04-24T14:03:03;15.50;94.80
28552;DHT22;15752;49.560;8.708;2023-04-24T14:05:32;15.50;95.30
28552;DHT22;15752;49.560;8.708;2023-04-24T14:08:02;15.50;94.30
28552;DHT22;15752;49.560;8.708;2023-04-24T14:10:30;15.50;94.50
28552;DHT22;15752;49.560;8.708;2023-04-24T14:12:59;15.50;94.60
28552;DHT22;15752;49.560;8.708;2023-04-24T14:15:30;15.50;94.50
28552;DHT22;15752;49.560;8.708;2023-04-24T14:18:00;15.60;94.40
28552;DHT22;15752;49.560;8.708;2023-04-24T14:20:32;15.60;94.60
28552;DHT22;15752;49.560;8.708;2023-04-24T14:23:00;15.50;94.20
28552;DHT22;15752;49.560;8.708;2023-04-24T14:25:31;15.50;94.20
28552;DHT22;15752;49.560;8.708;2023-04-24T14:28:00;15.50;94.10
28552;DHT22;15752;49.560;8.708;2023-04-24T14:30:28;15.50;94.30
28552;DHT22;15752;49.560;8.708;2023-04-24T14:32:57;15.60;94.30
28552;DHT22;15752;49.560;8.708;2023-04-24T14:35:27;15.60;94.30
28552;DHT22;15752;49.560;8.708;2023-04-24T14:37:58;15.60;94.20
28552;DHT22;15752;49.560;8.708;2023-04-24T14:40:27;15.60;94.40
28552;DHT22;15752;49.560;8.708;2023-04-24T14:43:15;15.60;94.10
28552;DHT22;15752;49.560;8.708;2023-04-24T14:45:43;15.60;93.90
28552;DHT22;15752;49.560;8.708;2023-04-24T14:48:12;15.50;93.80
28552;DHT22;15752;49.560;8.708;2023-04-24T14:50:42;15.50;93.20
28552;DHT22;15752;49.560;8.708;2023-04-24T14:53:10;15.50;94.00
28552;DHT22;15752;49.560;8.708;2023-04-24T14:55:39;15.50;93.90
28552;DHT22;15752;49.560;8.708;2023-04-24T14:58:07;15.60;94.00
28552;DHT22;15752;49.560;8.708;2023-04-24T15:00:35;15.60;94.30
28552;DHT22;15752;49.560;8.708;2023-04-24T15:03:04;15.70;94.20
28552;DHT22;15752;49.560;8.708;2023-04-24T15:05:32;15.70;93.90
28552;DHT22;15752;49.560;8.708;2023-04-24T15:08:03;15.70;94.00
28552;DHT22;15752;49.560;8.708;2023-04-24T15:10:31;15.80;94.30
28552;DHT22;15752;49.560;8.708;2023-04-24T15:13:00;15.80;94.20
28552;DHT22;15752;49.560;8.708;2023-04-24T15:15:28;15.90;94.00
28552;DHT22;15752;49.560;8.708;2023-04-24T15:17:56;15.90;94.10
28552;DHT22;15752;49.560;8.708;2023-04-24T15:20:25;15.90;94.10
28552;DHT22;15752;49.560;8.708;2023-04-24T15:22:53;15.90;94.30
28552;DHT22;15752;49.560;8.708;2023-04-24T15:25:23;16.00;94.30
28552;DHT22;15752;49.560;8.708;2023-04-24T15:27:52;16.00;94.10
28552;DHT22;15752;49.560;8.708;2023-04-24T15:30:20;16.00;94.20
28552;DHT22;15752;49.560;8.708;2023-04-24T15:32:49;15.90;94.30
28552;DHT22;15752;49.560;8.708;2023-04-24T15:35:17;16.00;94.10
28552;DHT22;15752;49.560;8.708;2023-04-24T15:37:46;15.90;94.40
28552;DHT22;15752;49.560;8.708;2023-04-24T15:40:16;15.90;94.20
28552;DHT22;15752;49.560;8.708;2023-04-24T15:42:46;15.90;94.30
28552;DHT22;15752;49.560;8.708;2023-04-24T15:45:14;15.90;94.20
28552;DHT22;15752;49.560;8.708;2023-04-24T15:47:44;15.90;94.60
28552;DHT22;15752;49.560;8.708;2023-04-24T15:50:14;15.90;94.70